sensor_id;sensor_type;location;lat;lon;timestamp;P1;durP1;ratioP1;P2;durP2;ratioP2
14526;SDS011;7350;51.208;4.238;2023-04-01T00:01:56;2.40;;;1.40;;
14526;SDS011;7350;51.208;4.238;2023-04-01T00:04:23;3.30;;;1.30;;
14526;SDS011;7350;51.208;4.238;2023-04-01T00:06:51;2.42;;;1.40;;
14526;SDS011;7350;51.208;4.238;2023-04-01T00:09:18;2.30;;;1.20;;
14526;SDS011;7350;51.208;4.238;2023-04-01T00:11:45;1.80;;;1.00;;
14526;SDS011;7350;51.208;4.238;2023-04-01T00:14:12;3.13;;;1.30;;
14526;SDS011;7350;51.208;4.238;2023-04-01T00:16:39;2.75;;;1.35;;
14526;SDS011;7350;51.208;4.238;2023-04-01T00:19:06;2.67;;;1.23;;
14526;SDS011;7350;51.208;4.238;2023-04-01T00:21:33;2.28;;;1.30;;
14526;SDS011;7350;51.208;4.238;2023-04-01T00:24:03;3.35;;;1.30;;
14526;SDS011;7350;51.208;4.238;2023-04-01T00:26:30;1.75;;;1.10;;
14526;SDS011;7350;51.208;4.238;2023-04-01T00:28:58;2.65;;;1.48;;
14526;SDS011;7350;51.208;4.238;2023-04-01T00:31:25;1.77;;;1.05;;
14526;SDS011;7350;51.208;4.238;2023-04-01T00:33:53;3.30;;;1.50;;
14526;SDS011;7350;51.208;4.238;2023-04-01T00:36:20;2.58;;;1.40;;
14526;SDS011;7350;51.208;4.238;2023-04-01T00:38:48;1.73;;;1.30;;
14526;SDS011;7350;51.208;4.238;2023-04-01T00:41:18;3.28;;;1.42;;
14526;SDS011;7350;51.208;4.238;2023-04-01T00:43:47;2.10;;;1.00;;
14526;SDS011;7350;51.208;4.238;2023-04-01T00:46:16;2.15;;;1.40;;
14526;SDS011;7350;51.208;4.238;2023-04-01T00:48:44;3.25;;;1.23;;
14526;SDS011;7350;51.208;4.238;2023-04-01T00:51:15;1.60;;;1.23;;
14526;SDS011;7350;51.208;4.238;2023-04-01T00:53:45;2.85;;;1.10;;
14526;SDS011;7350;51.208;4.238;2023-04-01T00:56:15;2.80;;;1.23;;
14526;SDS011;7350;51.208;4.238;2023-04-01T00:58:47;1.73;;;1.05;;
14526;SDS011;7350;51.208;4.238;2023-04-01T01:01:17;2.40;;;1.20;;
14526;SDS011;7350;51.208;4.238;2023-04-01T01:03:45;1.88;;;1.13;;
14526;SDS011;7350;51.208;4.238;2023-04-01T01:06:16;2.45;;;1.17;;
14526;SDS011;7350;51.208;4.238;2023-04-01T01:09:01;2.17;;;1.00;;
14526;SDS011;7350;51.208;4.238;2023-04-01T01:11:40;2.80;;;1.10;;
14526;SDS011;7350;51.208;4.238;2023-04-01T01:14:10;2.05;;;1.20;;
14526;SDS011;7350;51.208;4.238;2023-04-01T01:16:56;2.08;;;1.10;;
14526;SDS011;7350;51.208;4.238;2023-04-01T01:19:33;2.08;;;1.10;;
14526;SDS011;7350;51.208;4.238;2023-04-01T01:25:14;2.00;;;1.10;;
14526;SDS011;7350;51.208;4.238;2023-04-01T01:27:54;2.17;;;1.20;;
14526;SDS011;7350;51.208;4.238;2023-04-01T01:30:36;2.60;;;1.20;;
14526;SDS011;7350;51.208;4.238;2023-04-01T01:33:24;1.92;;;0.93;;
14526;SDS011;7350;51.208;4.238;2023-04-01T01:36:00;2.08;;;1.17;;
14526;SDS011;7350;51.208;4.238;2023-04-01T01:38:31;2.00;;;1.00;;
14526;SDS011;7350;51.208;4.238;2023-04-01T01:41:01;2.95;;;1.23;;
14526;SDS011;7350;51.208;4.238;2023-04-01T01:43:32;1.77;;;1.08;;
14526;SDS011;7350;51.208;4.238;2023-04-01T01:46:03;2.92;;;1.02;;
14526;SDS011;7350;51.208;4.238;2023-04-01T01:48:33;3.42;;;1.08;;
14526;SDS011;7350;51.208;4.238;2023-04-01T01:51:02;1.58;;;1.00;;
14526;SDS011;7350;51.208;4.238;2023-04-01T01:53:31;1.10;;;0.80;;
14526;SDS011;7350;51.208;4.238;2023-04-01T01:55:58;2.03;;;0.93;;
14526;SDS011;7350;51.208;4.238;2023-04-01T01:58:27;3.28;;;0.98;;
14526;SDS011;7350;51.208;4.238;2023-04-01T02:00:57;2.35;;;1.15;;
14526;SDS011;7350;51.208;4.238;2023-04-01T02:03:27;2.13;;;0.85;;
14526;SDS011;7350;51.208;4.238;2023-04-01T02:05:59;2.70;;;1.15;;
14526;SDS011;7350;51.208;4.238;2023-04-01T02:08:30;1.50;;;1.08;;
14526;SDS011;7350;51.208;4.238;2023-04-01T02:11:01;1.63;;;1.00;;
14526;SDS011;7350;51.208;4.238;2023-04-01T02:13:33;1.70;;;0.90;;
14526;SDS011;7350;51.208;4.238;2023-04-01T02:16:07;1.23;;;0.70;;
14526;SDS011;7350;51.208;4.238;2023-04-01T02:18:39;1.40;;;0.85;;
14526;SDS011;7350;51.208;4.238;2023-04-01T02:21:07;2.45;;;1.10;;
14526;SDS011;7350;51.208;4.238;2023-04-01T02:23:36;1.60;;;0.77;;
14526;SDS011;7350;51.208;4.238;2023-04-01T02:26:05;2.08;;;1.02;;
14526;SDS011;7350;51.208;4.238;2023-04-01T02:28:34;2.47;;;0.70;;
14526;SDS011;7350;51.208;4.238;2023-04-01T02:31:04;1.17;;;0.80;;
14526;SDS011;7350;51.208;4.238;2023-04-01T02:33:32;2.47;;;1.05;;
14526;SDS011;7350;51.208;4.238;2023-04-01T02:36:00;1.95;;;0.88;;
14526;SDS011;7350;51.208;4.238;2023-04-01T02:38:27;1.17;;;0.80;;
14526;SDS011;7350;51.208;4.238;2023-04-01T02:40:57;2.80;;;0.90;;
14526;SDS011;7350;51.208;4.238;2023-04-01T02:43:26;1.77;;;0.90;;
14526;SDS011;7350;51.208;4.238;2023-04-01T02:45:53;1.65;;;0.93;;
14526;SDS011;7350;51.208;4.238;2023-04-01T02:48:20;2.00;;;0.95;;
14526;SDS011;7350;51.208;4.238;2023-04-01T02:50:47;0.80;;;0.80;;
14526;SDS011;7350;51.208;4.238;2023-04-01T02:53:14;2.05;;;1.02;;
14526;SDS011;7350;51.208;4.238;2023-04-01T02:55:42;1.15;;;0.77;;
14526;SDS011;7350;51.208;4.238;2023-04-01T02:58:11;1.40;;;0.80;;
14526;SDS011;7350;51.208;4.238;2023-04-01T03:00:40;1.35;;;1.10;;
14526;SDS011;7350;51.208;4.238;2023-04-01T03:03:07;0.80;;;0.63;;
14526;SDS011;7350;51.208;4.238;2023-04-01T03:05:34;2.22;;;0.80;;
14526;SDS011;7350;51.208;4.238;2023-04-01T03:08:01;1.63;;;0.80;;
14526;SDS011;7350;51.208;4.238;2023-04-01T03:10:29;1.23;;;0.77;;
14526;SDS011;7350;51.208;4.238;2023-04-01T03:12:56;1.40;;;0.82;;
14526;SDS011;7350;51.208;4.238;2023-04-01T03:15:24;1.90;;;0.80;;
14526;SDS011;7350;51.208;4.238;2023-04-01T03:17:51;1.55;;;0.80;;
14526;SDS011;7350;51.208;4.238;2023-04-01T03:20:18;1.10;;;0.75;;
14526;SDS011;7350;51.208;4.238;2023-04-01T03:22:45;2.05;;;0.80;;
14526;SDS011;7350;51.208;4.238;2023-04-01T03:25:12;1.17;;;0.80;;
14526;SDS011;7350;51.208;4.238;2023-04-01T03:27:39;1.42;;;0.77;;
14526;SDS011;7350;51.208;4.238;2023-04-01T03:30:06;1.42;;;0.80;;
14526;SDS011;7350;51.208;4.238;2023-04-01T03:32:35;0.85;;;0.70;;
14526;SDS011;7350;51.208;4.238;2023-04-01T03:35:03;1.48;;;0.90;;
14526;SDS011;7350;51.208;4.238;2023-04-01T03:37:30;1.48;;;0.80;;
14526;SDS011;7350;51.208;4.238;2023-04-01T03:39:57;0.80;;;0.73;;
14526;SDS011;7350;51.208;4.238;2023-04-01T03:42:24;1.77;;;0.77;;
14526;SDS011;7350;51.208;4.238;2023-04-01T03:44:51;1.77;;;0.90;;
14526;SDS011;7350;51.208;4.238;2023-04-01T03:47:18;1.38;;;0.82;;
14526;SDS011;7350;51.208;4.238;2023-04-01T03:49:47;3.47;;;0.93;;
14526;SDS011;7350;51.208;4.238;2023-04-01T03:52:13;1.23;;;0.60;;
14526;SDS011;7350;51.208;4.238;2023-04-01T03:54:40;1.40;;;0.85;;
14526;SDS011;7350;51.208;4.238;2023-04-01T03:57:07;1.20;;;0.70;;
14526;SDS011;7350;51.208;4.238;2023-04-01T03:59:34;0.77;;;0.73;;
14526;SDS011;7350;51.208;4.238;2023-04-01T04:02:01;1.35;;;0.70;;
14526;SDS011;7350;51.208;4.238;2023-04-01T04:04:28;1.35;;;0.70;;
14526;SDS011;7350;51.208;4.238;2023-04-01T04:06:57;1.25;;;0.80;;
14526;SDS011;7350;51.208;4.238;2023-04-01T04:09:24;1.15;;;0.75;;
14526;SDS011;7350;51.208;4.238;2023-04-01T04:11:51;1.20;;;0.80;;
14526;SDS011;7350;51.208;4.238;2023-04-01T04:14:18;1.52;;;0.77;;
14526;SDS011;7350;51.208;4.238;2023-04-01T04:16:45;1.67;;;0.80;;
14526;SDS011;7350;51.208;4.238;2023-04-01T04:19:12;0.82;;;0.60;;
14526;SDS011;7350;51.208;4.238;2023-04-01T04:21:39;0.98;;;0.63;;
14526;SDS011;7350;51.208;4.238;2023-04-01T04:24:08;1.35;;;0.63;;
14526;SDS011;7350;51.208;4.238;2023-04-01T04:26:35;0.75;;;0.70;;
14526;SDS011;7350;51.208;4.238;2023-04-01T04:29:03;1.15;;;0.82;;
14526;SDS011;7350;51.208;4.238;2023-04-01T04:31:30;1.60;;;0.70;;
14526;SDS011;7350;51.208;4.238;2023-04-01T04:33:58;0.60;;;0.60;;
14526;SDS011;7350;51.208;4.238;2023-04-01T04:36:25;1.15;;;0.77;;
14526;SDS011;7350;51.208;4.238;2023-04-01T04:38:53;1.13;;;0.60;;
14526;SDS011;7350;51.208;4.238;2023-04-01T04:41:24;1.02;;;0.80;;
14526;SDS011;7350;51.208;4.238;2023-04-01T04:43:51;0.80;;;0.60;;
14526;SDS011;7350;51.208;4.238;2023-04-01T04:46:20;0.70;;;0.60;;
14526;SDS011;7350;51.208;4.238;2023-04-01T04:48:48;0.73;;;0.70;;
14526;SDS011;7350;51.208;4.238;2023-04-01T04:51:15;1.23;;;0.70;;
14526;SDS011;7350;51.208;4.238;2023-04-01T04:53:44;0.93;;;0.73;;
14526;SDS011;7350;51.208;4.238;2023-04-01T04:56:11;1.42;;;0.90;;
14526;SDS011;7350;51.208;4.238;2023-04-01T04:58:40;1.13;;;0.90;;
14526;SDS011;7350;51.208;4.238;2023-04-01T05:01:08;0.85;;;0.70;;
14526;SDS011;7350;51.208;4.238;2023-04-01T05:03:35;2.20;;;1.00;;
14526;SDS011;7350;51.208;4.238;2023-04-01T05:06:03;0.98;;;0.60;;
14526;SDS011;7350;51.208;4.238;2023-04-01T05:08:31;1.65;;;0.85;;
14526;SDS011;7350;51.208;4.238;2023-04-01T05:10:59;0.80;;;0.68;;
14526;SDS011;7350;51.208;4.238;2023-04-01T05:13:26;0.50;;;0.50;;
14526;SDS011;7350;51.208;4.238;2023-04-01T05:15:54;1.13;;;0.73;;
14526;SDS011;7350;51.208;4.238;2023-04-01T05:18:23;0.60;;;0.52;;
14526;SDS011;7350;51.208;4.238;2023-04-01T05:20:51;0.60;;;0.50;;
14526;SDS011;7350;51.208;4.238;2023-04-01T05:23:20;0.60;;;0.60;;
14526;SDS011;7350;51.208;4.238;2023-04-01T05:25:48;0.73;;;0.50;;
14526;SDS011;7350;51.208;4.238;2023-04-01T05:28:16;0.68;;;0.47;;
14526;SDS011;7350;51.208;4.238;2023-04-01T05:30:43;1.65;;;0.57;;
14526;SDS011;7350;51.208;4.238;2023-04-01T05:33:12;1.10;;;0.70;;
14526;SDS011;7350;51.208;4.238;2023-04-01T05:35:39;0.82;;;0.50;;
14526;SDS011;7350;51.208;4.238;2023-04-01T05:38:07;0.50;;;0.50;;
14526;SDS011;7350;51.208;4.238;2023-04-01T05:40:34;0.68;;;0.50;;
14526;SDS011;7350;51.208;4.238;2023-04-01T05:43:01;0.85;;;0.63;;
14526;SDS011;7350;51.208;4.238;2023-04-01T05:45:28;4.07;;;0.50;;
14526;SDS011;7350;51.208;4.238;2023-04-01T05:47:55;2.95;;;0.80;;
14526;SDS011;7350;51.208;4.238;2023-04-01T05:50:23;2.70;;;1.08;;
14526;SDS011;7350;51.208;4.238;2023-04-01T05:52:50;1.80;;;0.70;;
14526;SDS011;7350;51.208;4.238;2023-04-01T05:55:17;1.95;;;0.65;;
14526;SDS011;7350;51.208;4.238;2023-04-01T05:57:45;1.55;;;0.60;;
14526;SDS011;7350;51.208;4.238;2023-04-01T06:00:15;1.30;;;0.57;;
14526;SDS011;7350;51.208;4.238;2023-04-01T06:02:44;0.90;;;0.52;;
14526;SDS011;7350;51.208;4.238;2023-04-01T06:05:13;1.58;;;0.60;;
14526;SDS011;7350;51.208;4.238;2023-04-01T06:07:44;2.10;;;0.50;;
14526;SDS011;7350;51.208;4.238;2023-04-01T06:10:12;0.45;;;0.45;;
14526;SDS011;7350;51.208;4.238;2023-04-01T06:12:48;1.67;;;0.60;;
14526;SDS011;7350;51.208;4.238;2023-04-01T06:15:30;1.98;;;0.60;;
14526;SDS011;7350;51.208;4.238;2023-04-01T06:18:30;1.30;;;0.60;;
14526;SDS011;7350;51.208;4.238;2023-04-01T06:21:25;1.02;;;0.50;;
14526;SDS011;7350;51.208;4.238;2023-04-01T06:24:15;2.45;;;0.50;;
14526;SDS011;7350;51.208;4.238;2023-04-01T06:26:57;1.15;;;0.50;;
14526;SDS011;7350;51.208;4.238;2023-04-01T06:29:39;1.17;;;0.40;;
14526;SDS011;7350;51.208;4.238;2023-04-01T06:32:20;1.13;;;0.60;;
14526;SDS011;7350;51.208;4.238;2023-04-01T06:35:15;0.80;;;0.55;;
14526;SDS011;7350;51.208;4.238;2023-04-01T06:38:11;1.17;;;0.60;;
14526;SDS011;7350;51.208;4.238;2023-04-01T06:41:11;1.83;;;0.70;;
14526;SDS011;7350;51.208;4.238;2023-04-01T06:44:06;1.90;;;0.50;;
14526;SDS011;7350;51.208;4.238;2023-04-01T06:46:43;2.53;;;0.52;;
14526;SDS011;7350;51.208;4.238;2023-04-01T06:49:33;1.67;;;0.77;;
14526;SDS011;7350;51.208;4.238;2023-04-01T06:52:12;3.40;;;0.73;;
14526;SDS011;7350;51.208;4.238;2023-04-01T06:54:47;0.77;;;0.50;;
14526;SDS011;7350;51.208;4.238;2023-04-01T06:57:21;1.30;;;0.55;;
14526;SDS011;7350;51.208;4.238;2023-04-01T06:59:54;0.30;;;0.30;;
14526;SDS011;7350;51.208;4.238;2023-04-01T07:02:25;1.38;;;0.50;;
14526;SDS011;7350;51.208;4.238;2023-04-01T07:04:58;2.25;;;0.60;;
14526;SDS011;7350;51.208;4.238;2023-04-01T07:07:29;1.50;;;0.63;;
14526;SDS011;7350;51.208;4.238;2023-04-01T07:10:02;0.50;;;0.50;;
14526;SDS011;7350;51.208;4.238;2023-04-01T07:12:38;0.70;;;0.45;;
14526;SDS011;7350;51.208;4.238;2023-04-01T07:15:15;1.25;;;0.47;;
14526;SDS011;7350;51.208;4.238;2023-04-01T07:17:46;1.85;;;0.68;;
14526;SDS011;7350;51.208;4.238;2023-04-01T07:20:20;1.23;;;0.43;;
14526;SDS011;7350;51.208;4.238;2023-04-01T07:22:51;2.83;;;0.57;;
14526;SDS011;7350;51.208;4.238;2023-04-01T07:25:21;0.43;;;0.43;;
14526;SDS011;7350;51.208;4.238;2023-04-01T07:27:53;3.90;;;0.60;;
14526;SDS011;7350;51.208;4.238;2023-04-01T07:30:26;1.70;;;0.40;;
14526;SDS011;7350;51.208;4.238;2023-04-01T07:33:04;0.65;;;0.35;;
14526;SDS011;7350;51.208;4.238;2023-04-01T07:35:36;2.47;;;0.57;;
14526;SDS011;7350;51.208;4.238;2023-04-01T07:38:11;1.85;;;0.50;;
14526;SDS011;7350;51.208;4.238;2023-04-01T07:40:49;1.48;;;0.70;;
14526;SDS011;7350;51.208;4.238;2023-04-01T07:43:25;2.80;;;0.50;;
14526;SDS011;7350;51.208;4.238;2023-04-01T07:46:06;1.58;;;0.55;;
14526;SDS011;7350;51.208;4.238;2023-04-01T07:48:42;4.03;;;0.60;;
14526;SDS011;7350;51.208;4.238;2023-04-01T07:51:16;2.13;;;0.55;;
14526;SDS011;7350;51.208;4.238;2023-04-01T07:53:49;1.60;;;0.50;;
14526;SDS011;7350;51.208;4.238;2023-04-01T07:56:25;1.80;;;0.57;;
14526;SDS011;7350;51.208;4.238;2023-04-01T07:59:01;0.82;;;0.50;;
14526;SDS011;7350;51.208;4.238;2023-04-01T08:01:36;1.65;;;0.70;;
14526;SDS011;7350;51.208;4.238;2023-04-01T08:07:03;0.75;;;0.50;;
14526;SDS011;7350;51.208;4.238;2023-04-01T08:09:36;2.97;;;0.60;;
14526;SDS011;7350;51.208;4.238;2023-04-01T08:12:13;1.73;;;0.60;;
14526;SDS011;7350;51.208;4.238;2023-04-01T08:14:56;1.85;;;0.60;;
14526;SDS011;7350;51.208;4.238;2023-04-01T08:17:34;1.38;;;0.40;;
14526;SDS011;7350;51.208;4.238;2023-04-01T08:22:57;1.25;;;0.60;;
14526;SDS011;7350;51.208;4.238;2023-04-01T08:25:27;1.65;;;0.40;;
14526;SDS011;7350;51.208;4.238;2023-04-01T08:27:57;1.00;;;0.50;;
14526;SDS011;7350;51.208;4.238;2023-04-01T08:30:35;1.15;;;0.40;;
14526;SDS011;7350;51.208;4.238;2023-04-01T08:33:09;1.20;;;0.50;;
14526;SDS011;7350;51.208;4.238;2023-04-01T08:35:42;3.10;;;0.50;;
14526;SDS011;7350;51.208;4.238;2023-04-01T08:38:16;1.08;;;0.60;;
14526;SDS011;7350;51.208;4.238;2023-04-01T08:40:55;2.33;;;0.60;;
14526;SDS011;7350;51.208;4.238;2023-04-01T08:43:32;1.75;;;0.50;;
14526;SDS011;7350;51.208;4.238;2023-04-01T08:46:37;1.00;;;0.52;;
14526;SDS011;7350;51.208;4.238;2023-04-01T08:49:36;0.40;;;0.30;;
14526;SDS011;7350;51.208;4.238;2023-04-01T08:55:22;0.70;;;0.40;;
14526;SDS011;7350;51.208;4.238;2023-04-01T08:58:11;1.38;;;0.47;;
14526;SDS011;7350;51.208;4.238;2023-04-01T09:00:53;0.40;;;0.40;;
14526;SDS011;7350;51.208;4.238;2023-04-01T09:03:37;1.20;;;0.50;;
14526;SDS011;7350;51.208;4.238;2023-04-01T09:06:24;0.55;;;0.50;;
14526;SDS011;7350;51.208;4.238;2023-04-01T09:12:24;1.55;;;0.55;;
14526;SDS011;7350;51.208;4.238;2023-04-01T09:15:20;0.45;;;0.40;;
14526;SDS011;7350;51.208;4.238;2023-04-01T09:18:24;0.60;;;0.50;;
14526;SDS011;7350;51.208;4.238;2023-04-01T09:27:02;0.80;;;0.47;;
14526;SDS011;7350;51.208;4.238;2023-04-01T09:29:40;0.82;;;0.55;;
14526;SDS011;7350;51.208;4.238;2023-04-01T09:35:24;0.40;;;0.40;;
14526;SDS011;7350;51.208;4.238;2023-04-01T09:38:00;0.40;;;0.40;;
14526;SDS011;7350;51.208;4.238;2023-04-01T09:40:37;0.52;;;0.30;;
14526;SDS011;7350;51.208;4.238;2023-04-01T09:43:16;1.42;;;0.50;;
14526;SDS011;7350;51.208;4.238;2023-04-01T09:45:53;0.52;;;0.40;;
14526;SDS011;7350;51.208;4.238;2023-04-01T09:51:44;1.23;;;0.50;;
14526;SDS011;7350;51.208;4.238;2023-04-01T09:54:26;0.52;;;0.52;;
14526;SDS011;7350;51.208;4.238;2023-04-01T10:00:10;0.50;;;0.47;;
14526;SDS011;7350;51.208;4.238;2023-04-01T10:12:08;0.73;;;0.50;;
14526;SDS011;7350;51.208;4.238;2023-04-01T10:15:26;0.93;;;0.30;;
14526;SDS011;7350;51.208;4.238;2023-04-01T10:18:15;1.08;;;0.45;;
14526;SDS011;7350;51.208;4.238;2023-04-01T10:24:29;1.25;;;0.50;;
14526;SDS011;7350;51.208;4.238;2023-04-01T10:27:42;1.88;;;0.50;;
14526;SDS011;7350;51.208;4.238;2023-04-01T10:36:47;0.90;;;0.50;;
14526;SDS011;7350;51.208;4.238;2023-04-01T10:39:34;0.65;;;0.32;;
14526;SDS011;7350;51.208;4.238;2023-04-01T10:45:31;0.47;;;0.45;;
14526;SDS011;7350;51.208;4.238;2023-04-01T10:51:38;0.50;;;0.50;;
14526;SDS011;7350;51.208;4.238;2023-04-01T10:54:45;1.65;;;0.50;;
14526;SDS011;7350;51.208;4.238;2023-04-01T10:57:26;0.40;;;0.40;;
14526;SDS011;7350;51.208;4.238;2023-04-01T11:00:18;1.45;;;0.60;;
14526;SDS011;7350;51.208;4.238;2023-04-01T11:22:44;1.10;;;0.60;;
14526;SDS011;7350;51.208;4.238;2023-04-01T11:25:29;1.35;;;0.40;;
14526;SDS011;7350;51.208;4.238;2023-04-01T11:28:24;0.82;;;0.65;;
14526;SDS011;7350;51.208;4.238;2023-04-01T11:31:15;2.47;;;0.65;;
14526;SDS011;7350;51.208;4.238;2023-04-01T11:34:13;3.25;;;0.77;;
14526;SDS011;7350;51.208;4.238;2023-04-01T11:36:59;0.93;;;0.55;;
14526;SDS011;7350;51.208;4.238;2023-04-01T11:39:37;1.00;;;0.70;;
14526;SDS011;7350;51.208;4.238;2023-04-01T11:42:12;1.17;;;0.52;;
14526;SDS011;7350;51.208;4.238;2023-04-01T11:44:50;2.72;;;0.60;;
14526;SDS011;7350;51.208;4.238;2023-04-01T11:47:36;2.17;;;0.77;;
14526;SDS011;7350;51.208;4.238;2023-04-01T11:50:15;3.08;;;0.80;;
14526;SDS011;7350;51.208;4.238;2023-04-01T11:53:05;3.13;;;0.68;;
14526;SDS011;7350;51.208;4.238;2023-04-01T11:55:47;4.10;;;0.88;;
14526;SDS011;7350;51.208;4.238;2023-04-01T11:58:24;3.72;;;1.13;;
14526;SDS011;7350;51.208;4.238;2023-04-01T12:04:17;1.20;;;0.50;;
14526;SDS011;7350;51.208;4.238;2023-04-01T12:07:24;2.40;;;0.60;;
14526;SDS011;7350;51.208;4.238;2023-04-01T12:10:12;1.20;;;0.75;;
14526;SDS011;7350;51.208;4.238;2023-04-01T12:12:46;2.22;;;0.70;;
14526;SDS011;7350;51.208;4.238;2023-04-01T12:15:23;2.08;;;0.60;;
14526;SDS011;7350;51.208;4.238;2023-04-01T12:17:58;1.08;;;0.60;;
14526;SDS011;7350;51.208;4.238;2023-04-01T12:20:41;1.13;;;0.75;;
14526;SDS011;7350;51.208;4.238;2023-04-01T12:23:22;2.45;;;0.77;;
14526;SDS011;7350;51.208;4.238;2023-04-01T12:26:21;3.83;;;0.68;;
14526;SDS011;7350;51.208;4.238;2023-04-01T12:29:04;1.17;;;0.60;;
14526;SDS011;7350;51.208;4.238;2023-04-01T12:31:42;1.45;;;0.70;;
14526;SDS011;7350;51.208;4.238;2023-04-01T12:34:24;2.13;;;0.60;;
14526;SDS011;7350;51.208;4.238;2023-04-01T12:37:16;3.08;;;0.80;;
14526;SDS011;7350;51.208;4.238;2023-04-01T12:39:59;2.95;;;0.90;;
14526;SDS011;7350;51.208;4.238;2023-04-01T12:42:49;1.70;;;0.63;;
14526;SDS011;7350;51.208;4.238;2023-04-01T12:45:29;2.13;;;0.65;;
14526;SDS011;7350;51.208;4.238;2023-04-01T12:51:17;0.60;;;0.60;;
14526;SDS011;7350;51.208;4.238;2023-04-01T12:54:03;1.45;;;0.60;;
14526;SDS011;7350;51.208;4.238;2023-04-01T12:56:49;2.28;;;0.65;;
14526;SDS011;7350;51.208;4.238;2023-04-01T12:59:35;2.30;;;0.60;;
14526;SDS011;7350;51.208;4.238;2023-04-01T13:02:17;2.75;;;0.70;;
14526;SDS011;7350;51.208;4.238;2023-04-01T13:08:07;3.13;;;0.77;;
14526;SDS011;7350;51.208;4.238;2023-04-01T13:10:52;2.38;;;0.60;;
14526;SDS011;7350;51.208;4.238;2023-04-01T13:13:38;1.13;;;0.80;;
14526;SDS011;7350;51.208;4.238;2023-04-01T13:16:40;1.33;;;0.63;;
14526;SDS011;7350;51.208;4.238;2023-04-01T13:19:13;0.75;;;0.60;;
14526;SDS011;7350;51.208;4.238;2023-04-01T13:21:50;4.05;;;1.00;;
14526;SDS011;7350;51.208;4.238;2023-04-01T13:24:28;2.35;;;0.90;;
14526;SDS011;7350;51.208;4.238;2023-04-01T13:27:07;2.47;;;1.05;;
14526;SDS011;7350;51.208;4.238;2023-04-01T13:29:38;1.48;;;0.90;;
14526;SDS011;7350;51.208;4.238;2023-04-01T13:32:19;2.95;;;0.77;;
14526;SDS011;7350;51.208;4.238;2023-04-01T13:34:59;2.63;;;0.60;;
14526;SDS011;7350;51.208;4.238;2023-04-01T13:37:41;3.42;;;1.00;;
14526;SDS011;7350;51.208;4.238;2023-04-01T13:40:24;1.15;;;0.80;;
14526;SDS011;7350;51.208;4.238;2023-04-01T13:43:01;1.73;;;1.15;;
14526;SDS011;7350;51.208;4.238;2023-04-01T13:45:33;2.40;;;0.80;;
14526;SDS011;7350;51.208;4.238;2023-04-01T13:51:18;1.25;;;0.77;;
14526;SDS011;7350;51.208;4.238;2023-04-01T13:56:50;1.20;;;0.90;;
14526;SDS011;7350;51.208;4.238;2023-04-01T13:59:40;1.30;;;0.90;;
14526;SDS011;7350;51.208;4.238;2023-04-01T14:02:36;1.27;;;0.80;;
14526;SDS011;7350;51.208;4.238;2023-04-01T14:05:28;2.35;;;1.00;;
14526;SDS011;7350;51.208;4.238;2023-04-01T14:08:08;1.00;;;0.63;;
14526;SDS011;7350;51.208;4.238;2023-04-01T14:10:44;1.40;;;0.90;;
14526;SDS011;7350;51.208;4.238;2023-04-01T14:13:22;3.50;;;0.80;;
14526;SDS011;7350;51.208;4.238;2023-04-01T14:16:00;1.38;;;0.80;;
14526;SDS011;7350;51.208;4.238;2023-04-01T14:18:49;2.55;;;0.80;;
14526;SDS011;7350;51.208;4.238;2023-04-01T14:21:33;1.67;;;0.95;;
14526;SDS011;7350;51.208;4.238;2023-04-01T14:24:07;2.22;;;0.80;;
14526;SDS011;7350;51.208;4.238;2023-04-01T14:29:59;0.73;;;0.70;;
14526;SDS011;7350;51.208;4.238;2023-04-01T14:32:43;1.00;;;0.82;;
14526;SDS011;7350;51.208;4.238;2023-04-01T14:35:23;0.90;;;0.90;;
14526;SDS011;7350;51.208;4.238;2023-04-01T14:40:56;2.38;;;0.70;;
14526;SDS011;7350;51.208;4.238;2023-04-01T14:43:47;2.08;;;0.90;;
14526;SDS011;7350;51.208;4.238;2023-04-01T14:46:39;1.48;;;0.85;;
14526;SDS011;7350;51.208;4.238;2023-04-01T14:49:34;2.35;;;0.88;;
14526;SDS011;7350;51.208;4.238;2023-04-01T14:52:05;1.85;;;0.70;;
14526;SDS011;7350;51.208;4.238;2023-04-01T14:54:42;2.25;;;0.90;;
14526;SDS011;7350;51.208;4.238;2023-04-01T14:57:13;4.55;;;0.93;;
14526;SDS011;7350;51.208;4.238;2023-04-01T14:59:46;4.65;;;1.02;;
14526;SDS011;7350;51.208;4.238;2023-04-01T15:02:22;3.05;;;0.90;;
14526;SDS011;7350;51.208;4.238;2023-04-01T15:05:10;2.17;;;0.60;;
14526;SDS011;7350;51.208;4.238;2023-04-01T15:07:50;1.45;;;0.70;;
14526;SDS011;7350;51.208;4.238;2023-04-01T15:10:45;2.50;;;0.73;;
14526;SDS011;7350;51.208;4.238;2023-04-01T15:13:20;1.98;;;0.80;;
14526;SDS011;7350;51.208;4.238;2023-04-01T15:16:04;1.65;;;0.82;;
14526;SDS011;7350;51.208;4.238;2023-04-01T15:18:40;1.85;;;0.70;;
14526;SDS011;7350;51.208;4.238;2023-04-01T15:21:18;0.70;;;0.60;;
14526;SDS011;7350;51.208;4.238;2023-04-01T15:24:00;1.70;;;0.70;;
14526;SDS011;7350;51.208;4.238;2023-04-01T15:26:49;1.75;;;0.70;;
14526;SDS011;7350;51.208;4.238;2023-04-01T15:29:39;1.75;;;0.90;;
14526;SDS011;7350;51.208;4.238;2023-04-01T15:32:21;0.90;;;0.50;;
14526;SDS011;7350;51.208;4.238;2023-04-01T15:34:56;1.20;;;0.80;;
14526;SDS011;7350;51.208;4.238;2023-04-01T15:37:33;1.35;;;0.77;;
14526;SDS011;7350;51.208;4.238;2023-04-01T15:40:15;1.05;;;0.70;;
14526;SDS011;7350;51.208;4.238;2023-04-01T15:42:59;2.97;;;0.70;;
14526;SDS011;7350;51.208;4.238;2023-04-01T15:45:42;1.27;;;0.68;;
14526;SDS011;7350;51.208;4.238;2023-04-01T15:48:20;1.50;;;0.70;;
14526;SDS011;7350;51.208;4.238;2023-04-01T15:51:07;0.75;;;0.60;;
14526;SDS011;7350;51.208;4.238;2023-04-01T15:56:41;1.45;;;0.60;;
14526;SDS011;7350;51.208;4.238;2023-04-01T15:59:22;1.10;;;0.65;;
14526;SDS011;7350;51.208;4.238;2023-04-01T16:01:59;0.70;;;0.60;;
14526;SDS011;7350;51.208;4.238;2023-04-01T16:04:42;0.70;;;0.65;;
14526;SDS011;7350;51.208;4.238;2023-04-01T16:07:27;0.63;;;0.60;;
14526;SDS011;7350;51.208;4.238;2023-04-01T16:10:16;0.93;;;0.73;;
14526;SDS011;7350;51.208;4.238;2023-04-01T16:13:21;1.77;;;0.70;;
14526;SDS011;7350;51.208;4.238;2023-04-01T16:15:58;1.42;;;0.90;;
14526;SDS011;7350;51.208;4.238;2023-04-01T16:18:36;0.50;;;0.50;;
14526;SDS011;7350;51.208;4.238;2023-04-01T16:21:12;1.73;;;0.63;;
14526;SDS011;7350;51.208;4.238;2023-04-01T16:23:48;0.93;;;0.73;;
14526;SDS011;7350;51.208;4.238;2023-04-01T16:26:22;1.02;;;0.60;;
14526;SDS011;7350;51.208;4.238;2023-04-01T16:28:53;0.60;;;0.60;;
14526;SDS011;7350;51.208;4.238;2023-04-01T16:31:32;2.30;;;0.70;;
14526;SDS011;7350;51.208;4.238;2023-04-01T16:34:04;1.00;;;0.63;;
14526;SDS011;7350;51.208;4.238;2023-04-01T16:36:40;0.50;;;0.50;;
14526;SDS011;7350;51.208;4.238;2023-04-01T16:39:25;0.52;;;0.50;;
14526;SDS011;7350;51.208;4.238;2023-04-01T16:42:02;3.03;;;0.70;;
14526;SDS011;7350;51.208;4.238;2023-04-01T16:44:44;1.02;;;0.60;;
14526;SDS011;7350;51.208;4.238;2023-04-01T16:47:19;1.58;;;0.80;;
14526;SDS011;7350;51.208;4.238;2023-04-01T16:49:54;1.95;;;0.90;;
14526;SDS011;7350;51.208;4.238;2023-04-01T16:52:36;0.93;;;0.60;;
14526;SDS011;7350;51.208;4.238;2023-04-01T16:55:15;1.17;;;0.70;;
14526;SDS011;7350;51.208;4.238;2023-04-01T16:57:45;1.83;;;0.73;;
14526;SDS011;7350;51.208;4.238;2023-04-01T17:00:17;3.95;;;1.20;;
14526;SDS011;7350;51.208;4.238;2023-04-01T17:02:55;1.55;;;0.80;;
14526;SDS011;7350;51.208;4.238;2023-04-01T17:05:37;2.33;;;0.90;;
14526;SDS011;7350;51.208;4.238;2023-04-01T17:08:15;1.70;;;1.00;;
14526;SDS011;7350;51.208;4.238;2023-04-01T17:10:50;0.93;;;0.80;;
14526;SDS011;7350;51.208;4.238;2023-04-01T17:13:32;3.50;;;1.00;;
14526;SDS011;7350;51.208;4.238;2023-04-01T17:16:07;1.77;;;0.90;;
14526;SDS011;7350;51.208;4.238;2023-04-01T17:18:49;1.85;;;1.08;;
14526;SDS011;7350;51.208;4.238;2023-04-01T17:21:25;1.58;;;0.80;;
14526;SDS011;7350;51.208;4.238;2023-04-01T17:24:14;2.33;;;0.98;;
14526;SDS011;7350;51.208;4.238;2023-04-01T17:26:56;2.25;;;0.90;;
14526;SDS011;7350;51.208;4.238;2023-04-01T17:29:31;1.25;;;0.70;;
14526;SDS011;7350;51.208;4.238;2023-04-01T17:32:07;1.98;;;0.80;;
14526;SDS011;7350;51.208;4.238;2023-04-01T17:34:44;1.02;;;0.80;;
14526;SDS011;7350;51.208;4.238;2023-04-01T17:37:23;1.67;;;0.70;;